createdAt,value
2018-07-16T00:02:52.463Z,3.60
2018-07-16T00:05:49.827Z,3.40
2018-07-16T00:08:47.788Z,3.43
2018-07-16T00:11:45.662Z,3.47
2018-07-16T00:14:43.560Z,3.40
2018-07-16T00:17:41.609Z,3.87
2018-07-16T00:20:39.455Z,3.80
2018-07-16T00:23:37.454Z,3.27
2018-07-16T00:26:35.389Z,3.40
2018-07-16T00:29:33.178Z,3.17
2018-07-16T00:32:31.336Z,4.33
2018-07-16T00:35:29.288Z,4.13
2018-07-16T00:38:27.439Z,4.07
2018-07-16T00:41:25.087Z,4.47
2018-07-16T00:44:23.254Z,4.50
2018-07-16T00:47:21.034Z,4.80
2018-07-16T00:50:18.308Z,4.20
2018-07-16T00:53:15.602Z,3.77
2018-07-16T00:56:12.726Z,3.30
2018-07-16T00:59:09.872Z,3.43
2018-07-16T01:02:07.914Z,4.10
2018-07-16T01:05:05.742Z,3.73
2018-07-16T01:08:03.245Z,4.17
2018-07-16T01:11:01.193Z,4.00
2018-07-16T01:13:59.027Z,3.50
2018-07-16T01:16:56.763Z,3.93
2018-07-16T01:19:54.656Z,4.30
2018-07-16T01:22:51.730Z,4.03
2018-07-16T01:25:49.885Z,4.40
2018-07-16T01:28:47.634Z,4.30
2018-07-16T01:31:45.409Z,3.93
2018-07-16T01:34:43.659Z,4.00
2018-07-16T01:37:41.787Z,3.80
2018-07-16T01:40:39.819Z,3.47
2018-07-16T01:43:37.810Z,4.13
2018-07-16T01:46:35.770Z,3.87
2018-07-16T01:49:33.622Z,4.07
2018-07-16T01:52:31.588Z,3.73
2018-07-16T01:55:29.126Z,4.00
2018-07-16T01:58:26.474Z,4.43
2018-07-16T02:01:23.733Z,4.27
2018-07-16T02:04:21.740Z,4.13
2018-07-16T02:07:19.074Z,4.07
2018-07-16T02:10:16.513Z,4.13
2018-07-16T02:13:14.122Z,4.80
2018-07-16T02:16:11.654Z,4.13
2018-07-16T02:19:08.881Z,4.30
2018-07-16T02:22:07.102Z,3.77
2018-07-16T02:25:04.414Z,4.60
2018-07-16T02:28:02.072Z,3.93
2018-07-16T02:30:59.980Z,3.83
2018-07-16T02:33:57.514Z,4.13
2018-07-16T02:36:55.409Z,3.90
2018-07-16T02:39:52.661Z,4.73
2018-07-16T02:42:49.767Z,4.60
2018-07-16T02:45:47.398Z,4.53
2018-07-16T02:48:45.326Z,4.00
2018-07-16T02:51:43.062Z,3.40
2018-07-16T02:54:40.931Z,4.80
2018-07-16T02:57:39.175Z,3.90
2018-07-16T03:00:36.980Z,4.50
2018-07-16T03:03:34.858Z,4.97
2018-07-16T03:06:32.719Z,4.67
2018-07-16T03:09:30.762Z,4.77
2018-07-16T03:12:28.522Z,4.63
2018-07-16T03:15:27.767Z,4.17
2018-07-16T03:18:25.875Z,4.50
2018-07-16T03:21:24.106Z,4.73
2018-07-16T03:24:21.472Z,3.90
2018-07-16T03:27:18.942Z,4.50
2018-07-16T03:30:16.748Z,4.80
2018-07-16T03:33:14.646Z,4.97
2018-07-16T03:36:12.025Z,4.33
2018-07-16T03:39:08.879Z,3.77
2018-07-16T03:42:06.377Z,4.20
2018-07-16T03:45:03.746Z,4.60
2018-07-16T03:48:01.671Z,4.77
2018-07-16T03:50:59.571Z,4.83
2018-07-16T03:53:57.455Z,4.07
2018-07-16T03:56:54.515Z,4.53
2018-07-16T03:59:52.726Z,4.20
2018-07-16T04:02:50.251Z,4.23
2018-07-16T04:05:48.183Z,4.33
2018-07-16T04:08:45.922Z,3.47
2018-07-16T04:11:43.869Z,3.60
2018-07-16T04:14:41.707Z,3.53
2018-07-16T04:17:38.745Z,3.70
2018-07-16T04:20:36.360Z,4.87
2018-07-16T04:23:34.399Z,4.03
2018-07-16T04:26:31.550Z,3.67
2018-07-16T04:29:29.033Z,3.80
2018-07-16T04:32:26.346Z,5.00
2018-07-16T04:35:23.638Z,3.30
2018-07-16T04:38:20.959Z,4.50
2018-07-16T04:41:18.574Z,4.37
2018-07-16T04:44:16.220Z,4.27
2018-07-16T04:47:14.186Z,4.43
2018-07-16T04:50:11.894Z,4.30
2018-07-16T04:53:09.494Z,4.37
2018-07-16T04:56:07.727Z,4.00
2018-07-16T04:59:05.586Z,3.50
2018-07-16T05:02:03.622Z,4.33
2018-07-16T05:05:01.068Z,3.87
2018-07-16T05:07:59.118Z,3.53
2018-07-16T05:10:56.923Z,4.10
2018-07-16T05:13:54.919Z,3.60
2018-07-16T05:16:52.815Z,3.73
2018-07-16T05:19:50.169Z,3.43
2018-07-16T05:22:47.802Z,3.27
2018-07-16T05:25:45.703Z,3.80
2018-07-16T05:28:43.680Z,3.55
2018-07-16T05:31:41.363Z,4.03
2018-07-16T05:34:39.418Z,3.75
2018-07-16T05:37:36.904Z,3.37
2018-07-16T05:40:34.909Z,4.07
2018-07-16T05:43:32.406Z,3.45
2018-07-16T05:46:30.484Z,3.42
2018-07-16T05:49:27.823Z,3.55
2018-07-16T05:52:25.095Z,3.58
2018-07-16T05:55:22.666Z,3.25
2018-07-16T05:58:20.764Z,3.85
2018-07-16T06:01:18.375Z,3.50
2018-07-16T06:04:15.542Z,3.70
2018-07-16T06:07:13.017Z,3.62
2018-07-16T06:10:10.985Z,4.08
2018-07-16T06:13:08.530Z,3.75
2018-07-16T06:16:06.090Z,3.40
2018-07-16T06:19:03.683Z,3.45
2018-07-16T06:22:01.833Z,3.60
2018-07-16T06:24:58.951Z,3.50
2018-07-16T06:27:56.702Z,3.60
2018-07-16T06:30:53.901Z,3.35
2018-07-16T06:33:52.139Z,3.37
2018-07-16T06:36:49.707Z,3.20
2018-07-16T06:39:47.762Z,3.62
2018-07-16T06:42:45.657Z,3.17
2018-07-16T06:45:42.808Z,3.70
2018-07-16T06:48:40.127Z,3.58
2018-07-16T06:51:37.431Z,3.20
2018-07-16T06:54:34.520Z,3.05
2018-07-16T06:57:32.263Z,3.58
2018-07-16T07:00:29.511Z,3.22
2018-07-16T07:03:26.670Z,3.08
2018-07-16T07:06:24.762Z,3.15
2018-07-16T07:09:22.144Z,2.80
2018-07-16T07:12:19.688Z,2.75
2018-07-16T07:15:17.231Z,2.67
2018-07-16T07:18:14.278Z,2.95
2018-07-16T07:21:11.402Z,2.67
2018-07-16T07:24:08.993Z,2.70
2018-07-16T07:27:06.175Z,2.47
2018-07-16T07:30:04.330Z,2.40
2018-07-16T07:33:01.434Z,1.98
2018-07-16T07:35:58.668Z,2.25
2018-07-16T07:38:56.515Z,2.33
2018-07-16T07:41:53.657Z,2.42
2018-07-16T07:44:51.258Z,2.22
2018-07-16T07:47:49.413Z,2.33
2018-07-16T07:50:47.270Z,2.30
2018-07-16T07:53:45.279Z,2.20
2018-07-16T07:56:43.069Z,2.42
2018-07-16T07:59:41.208Z,2.20
2018-07-16T08:02:38.431Z,2.20
2018-07-16T08:05:35.749Z,2.75
2018-07-16T08:08:33.869Z,2.10
2018-07-16T08:11:31.894Z,2.70
2018-07-16T08:14:29.815Z,2.40
2018-07-16T08:17:27.915Z,2.25
2018-07-16T08:20:25.802Z,2.25
2018-07-16T08:23:23.726Z,2.17
2018-07-16T08:26:20.853Z,2.00
2018-07-16T08:29:18.481Z,1.90
2018-07-16T08:32:16.565Z,2.37
2018-07-16T08:35:14.775Z,1.70
2018-07-16T08:38:12.838Z,1.90
2018-07-16T08:41:10.733Z,1.80
2018-07-16T08:44:08.526Z,1.92
2018-07-16T08:47:06.008Z,1.80
2018-07-16T08:50:03.802Z,1.87
2018-07-16T08:53:01.448Z,1.70
2018-07-16T08:55:58.955Z,2.00
2018-07-16T08:58:56.886Z,1.60
2018-07-16T09:01:54.682Z,1.98
2018-07-16T09:04:52.658Z,2.15
2018-07-16T09:07:50.880Z,1.70
2018-07-16T09:10:48.644Z,1.70
2018-07-16T09:13:46.621Z,1.50
2018-07-16T09:16:44.681Z,2.25
2018-07-16T09:19:42.111Z,1.80
2018-07-16T09:22:39.438Z,1.82
2018-07-16T09:25:36.931Z,1.70
2018-07-16T09:28:35.111Z,1.92
2018-07-16T09:31:32.993Z,2.42
2018-07-16T09:34:30.438Z,2.00
2018-07-16T09:37:28.362Z,1.70
2018-07-16T09:40:26.607Z,1.90
2018-07-16T09:43:24.014Z,1.92
2018-07-16T09:46:21.848Z,1.95
2018-07-16T09:49:19.368Z,1.70
2018-07-16T09:52:17.423Z,2.00
2018-07-16T09:55:15.532Z,2.10
2018-07-16T09:58:13.234Z,1.95
2018-07-16T10:01:16.799Z,1.80
2018-07-16T10:04:14.787Z,2.05
2018-07-16T10:07:12.769Z,1.70
2018-07-16T10:10:10.821Z,2.05
2018-07-16T10:13:08.735Z,1.82
2018-07-16T10:16:05.936Z,2.20
2018-07-16T10:19:03.122Z,2.15
2018-07-16T10:22:00.968Z,2.30
2018-07-16T10:24:58.299Z,1.60
2018-07-16T10:27:55.525Z,2.00
2018-07-16T10:30:53.075Z,2.00
2018-07-16T10:33:51.331Z,2.10
2018-07-16T10:36:48.389Z,1.72
2018-07-16T10:39:45.811Z,1.90
2018-07-16T10:42:43.675Z,1.87
2018-07-16T10:45:41.620Z,2.10
2018-07-16T10:48:39.668Z,2.30
2018-07-16T10:51:37.446Z,2.45
2018-07-16T10:54:35.092Z,1.90
2018-07-16T10:57:32.999Z,2.10
2018-07-16T11:00:30.659Z,2.10
2018-07-16T11:03:28.132Z,1.90
2018-07-16T11:06:31.279Z,1.90
2018-07-16T11:09:28.642Z,2.20
2018-07-16T11:12:26.758Z,2.10
2018-07-16T11:15:25.039Z,2.47
2018-07-16T11:18:22.631Z,2.20
2018-07-16T11:21:20.689Z,2.20
2018-07-16T11:24:18.478Z,2.25
2018-07-16T11:27:15.535Z,1.98
2018-07-16T11:30:14.503Z,2.15
2018-07-16T11:33:12.320Z,1.67
2018-07-16T11:36:09.575Z,2.02
2018-07-16T11:39:06.570Z,2.05
2018-07-16T11:42:03.810Z,1.85
2018-07-16T11:45:00.964Z,1.77
2018-07-16T11:47:58.071Z,1.93
2018-07-16T11:50:55.754Z,2.07
2018-07-16T11:53:52.830Z,2.23
2018-07-16T11:56:50.542Z,2.20
2018-07-16T11:59:48.199Z,2.57
2018-07-16T12:02:46.385Z,2.07
2018-07-16T12:05:43.772Z,2.27
2018-07-16T12:08:41.991Z,2.37
2018-07-16T12:11:40.090Z,2.20
2018-07-16T12:14:38.238Z,2.23
2018-07-16T12:17:36.084Z,2.20
2018-07-16T12:20:34.158Z,2.10
2018-07-16T12:23:32.279Z,2.53
2018-07-16T12:26:30.050Z,1.97
2018-07-16T12:29:27.457Z,2.20
2018-07-16T12:32:24.667Z,2.43
2018-07-16T12:35:22.564Z,2.33
2018-07-16T12:38:20.731Z,2.20
2018-07-16T12:41:18.365Z,2.10
2018-07-16T12:44:16.361Z,2.23
2018-07-16T12:47:13.631Z,2.17
2018-07-16T12:50:11.554Z,1.90
2018-07-16T12:53:08.596Z,2.50
2018-07-16T12:56:05.904Z,2.10
2018-07-16T12:59:03.366Z,2.13
2018-07-16T13:02:01.274Z,2.17
2018-07-16T13:04:58.590Z,2.10
2018-07-16T13:07:56.075Z,2.17
2018-07-16T13:10:54.011Z,1.70
2018-07-16T13:13:52.226Z,1.90
2018-07-16T13:16:49.690Z,1.80
2018-07-16T13:19:47.610Z,2.10
2018-07-16T13:22:45.726Z,2.07
2018-07-16T13:25:43.361Z,2.10
2018-07-16T13:28:41.081Z,2.07
2018-07-16T13:31:38.729Z,2.00
2018-07-16T13:34:36.102Z,2.03
2018-07-16T13:37:34.189Z,2.07
2018-07-16T13:40:31.333Z,2.03
2018-07-16T13:43:29.287Z,2.10
2018-07-16T13:46:26.664Z,2.20
2018-07-16T13:49:24.159Z,2.00
2018-07-16T13:52:21.435Z,2.10
2018-07-16T13:55:19.460Z,2.30
2018-07-16T13:58:17.725Z,2.47
2018-07-16T14:01:15.219Z,2.40
2018-07-16T14:04:12.626Z,2.03
2018-07-16T14:07:10.922Z,2.20
2018-07-16T14:10:08.070Z,2.50
2018-07-16T14:13:06.100Z,2.23
2018-07-16T14:16:03.320Z,2.27
2018-07-16T14:19:01.513Z,2.20
2018-07-16T14:21:59.180Z,2.33
2018-07-16T14:24:56.372Z,2.00
2018-07-16T14:27:54.261Z,1.97
2018-07-16T14:30:52.184Z,2.10
2018-07-16T14:33:49.834Z,2.00
2018-07-16T14:36:47.544Z,2.40
2018-07-16T14:39:45.818Z,2.40
2018-07-16T14:42:43.987Z,2.20
2018-07-16T14:45:42.149Z,2.27
2018-07-16T14:48:40.095Z,2.27
2018-07-16T14:51:38.104Z,2.60
2018-07-16T14:54:35.165Z,2.60
2018-07-16T14:57:33.091Z,2.27
2018-07-16T15:00:30.893Z,2.30
2018-07-16T15:03:28.989Z,2.10
2018-07-16T15:06:26.343Z,2.10
2018-07-16T15:09:23.612Z,2.23
2018-07-16T15:12:21.730Z,2.23
2018-07-16T15:15:19.130Z,2.27
2018-07-16T15:18:17.240Z,2.60
2018-07-16T15:21:14.734Z,2.30
2018-07-16T15:24:12.549Z,2.13
2018-07-16T15:27:09.985Z,2.17
2018-07-16T15:30:08.283Z,2.33
2018-07-16T15:33:05.542Z,2.27
2018-07-16T15:36:03.050Z,2.27
2018-07-16T15:39:00.496Z,2.40
2018-07-16T15:41:58.236Z,2.20
2018-07-16T15:44:55.333Z,2.07
2018-07-16T15:47:53.450Z,2.23
2018-07-16T15:50:50.846Z,2.13
2018-07-16T15:53:48.364Z,2.27
2018-07-16T15:56:45.909Z,1.80
2018-07-16T15:59:44.757Z,2.20
2018-07-16T16:02:42.435Z,2.20
2018-07-16T16:05:40.376Z,2.20
2018-07-16T16:08:37.726Z,1.87
2018-07-16T16:11:35.106Z,2.10
2018-07-16T16:14:32.947Z,2.20
2018-07-16T16:17:30.685Z,2.57
2018-07-16T16:20:27.996Z,2.23
2018-07-16T16:23:25.964Z,2.30
2018-07-16T16:26:23.293Z,2.47
2018-07-16T16:29:20.323Z,2.50
2018-07-16T16:32:18.414Z,2.83
2018-07-16T16:35:16.348Z,2.37
2018-07-16T16:38:14.395Z,2.10
2018-07-16T16:41:11.966Z,2.30
2018-07-16T16:44:09.742Z,2.30
2018-07-16T16:47:07.714Z,2.37
2018-07-16T16:50:04.877Z,2.33
2018-07-16T16:53:02.851Z,2.57
2018-07-16T16:56:01.064Z,2.07
2018-07-16T16:58:58.910Z,2.60
2018-07-16T17:01:56.496Z,2.63
2018-07-16T17:04:53.803Z,1.73
2018-07-16T17:07:51.065Z,2.33
2018-07-16T17:10:48.963Z,2.60
2018-07-16T17:13:47.059Z,2.23
2018-07-16T17:16:44.373Z,2.60
2018-07-16T17:19:41.755Z,2.20
2018-07-16T17:22:39.415Z,2.27
2018-07-16T17:25:36.777Z,2.60
2018-07-16T17:28:34.882Z,2.40
2018-07-16T17:31:32.587Z,2.33
2018-07-16T17:34:29.897Z,2.40
2018-07-16T17:37:27.036Z,2.60
2018-07-16T17:40:25.515Z,2.50
2018-07-16T17:43:22.725Z,2.47
2018-07-16T17:46:20.351Z,2.87
2018-07-16T17:49:17.637Z,2.30
2018-07-16T17:52:15.702Z,2.53
2018-07-16T17:55:13.319Z,2.47
2018-07-16T17:58:11.020Z,2.53
2018-07-16T18:01:09.032Z,2.57
2018-07-16T18:04:07.302Z,2.60
2018-07-16T18:07:04.618Z,2.40
2018-07-16T18:10:02.553Z,2.60
2018-07-16T18:13:00.108Z,2.77
2018-07-16T18:15:58.276Z,2.40
2018-07-16T18:18:56.223Z,2.60
2018-07-16T18:21:53.770Z,2.30
2018-07-16T18:24:51.764Z,2.50
2018-07-16T18:27:49.613Z,2.40
2018-07-16T18:30:46.765Z,2.63
2018-07-16T18:33:44.515Z,2.40
2018-07-16T18:36:42.176Z,2.47
2018-07-16T18:39:39.280Z,2.47
2018-07-16T18:42:37.267Z,2.63
2018-07-16T18:45:35.482Z,2.60
2018-07-16T18:48:33.161Z,2.53
2018-07-16T18:51:31.296Z,2.90
2018-07-16T18:54:29.251Z,2.40
2018-07-16T18:57:26.391Z,2.30
2018-07-16T19:00:24.393Z,2.33
2018-07-16T19:03:22.395Z,2.60
2018-07-16T19:06:20.243Z,2.57
2018-07-16T19:09:18.739Z,2.70
2018-07-16T19:12:16.176Z,2.80
2018-07-16T19:15:13.589Z,2.40
2018-07-16T19:18:11.664Z,2.77
2018-07-16T19:21:09.610Z,2.40
2018-07-16T19:24:07.546Z,2.33
2018-07-16T19:27:05.011Z,2.73
2018-07-16T19:30:02.316Z,3.00
2018-07-16T19:32:59.863Z,2.97
2018-07-16T19:35:57.456Z,2.83
2018-07-16T19:38:55.769Z,2.80
2018-07-16T19:41:53.027Z,2.70
2018-07-16T19:44:51.046Z,2.60
2018-07-16T19:47:48.735Z,3.37
2018-07-16T19:50:46.678Z,3.10
2018-07-16T19:53:44.057Z,2.70
2018-07-16T19:56:41.231Z,3.10
2018-07-16T19:59:38.331Z,3.20
2018-07-16T20:02:35.553Z,3.20
2018-07-16T20:05:32.930Z,3.20
2018-07-16T20:08:30.228Z,3.03
2018-07-16T20:11:27.799Z,2.90
2018-07-16T20:14:25.544Z,2.93
2018-07-16T20:17:23.019Z,3.20
2018-07-16T20:20:22.024Z,3.20
2018-07-16T20:23:19.392Z,3.10
2018-07-16T20:26:17.504Z,3.20
2018-07-16T20:29:15.334Z,3.33
2018-07-16T20:32:12.387Z,3.47
2018-07-16T20:35:09.491Z,3.87
2018-07-16T20:38:06.975Z,3.67
2018-07-16T20:41:04.921Z,5.77
2018-07-16T20:44:02.248Z,4.40
2018-07-16T20:46:59.439Z,4.00
2018-07-16T20:49:57.214Z,4.33
2018-07-16T20:52:55.200Z,3.90
2018-07-16T20:55:53.140Z,4.07
2018-07-16T20:58:51.047Z,3.97
2018-07-16T21:01:48.753Z,3.73
2018-07-16T21:04:46.413Z,4.83
2018-07-16T21:07:43.800Z,4.10
2018-07-16T21:10:41.223Z,3.97
2018-07-16T21:13:39.244Z,4.13
2018-07-16T21:16:36.446Z,4.33
2018-07-16T21:19:33.661Z,3.73
2018-07-16T21:22:31.780Z,3.87
2018-07-16T21:25:30.354Z,3.90
2018-07-16T21:28:28.433Z,3.60
2018-07-16T21:31:25.463Z,4.03
2018-07-16T21:34:23.278Z,4.20
2018-07-16T21:37:20.864Z,4.50
2018-07-16T21:40:18.890Z,3.80
2018-07-16T21:43:16.947Z,4.63
2018-07-16T21:46:14.554Z,4.10
2018-07-16T21:49:12.506Z,4.40
2018-07-16T21:52:09.860Z,4.30
2018-07-16T21:55:07.511Z,4.83
2018-07-16T21:58:04.980Z,5.00
2018-07-16T22:01:02.641Z,4.43
2018-07-16T22:04:00.639Z,4.37
2018-07-16T22:06:57.979Z,4.50
2018-07-16T22:09:55.358Z,4.83
2018-07-16T22:12:52.567Z,5.27
2018-07-16T22:15:50.702Z,5.17
2018-07-16T22:18:47.808Z,5.40
2018-07-16T22:21:45.806Z,4.67
2018-07-16T22:24:43.387Z,4.27
2018-07-16T22:27:40.620Z,4.70
2018-07-16T22:30:37.951Z,4.87
2018-07-16T22:33:35.923Z,4.77
2018-07-16T22:36:33.795Z,4.17
2018-07-16T22:39:31.059Z,5.43
2018-07-16T22:42:28.127Z,4.50
2018-07-16T22:45:26.130Z,3.97
2018-07-16T22:48:23.827Z,4.43
2018-07-16T22:51:21.034Z,4.30
2018-07-16T22:54:18.813Z,4.67
2018-07-16T22:57:16.502Z,4.70
2018-07-16T23:00:14.612Z,4.47
2018-07-16T23:03:12.482Z,5.03
2018-07-16T23:06:09.934Z,5.13
2018-07-16T23:09:07.887Z,5.30
2018-07-16T23:12:05.826Z,4.80
2018-07-16T23:15:03.432Z,5.20
2018-07-16T23:18:01.472Z,4.50
2018-07-16T23:20:59.139Z,5.03
2018-07-16T23:23:57.334Z,5.57
2018-07-16T23:26:54.598Z,4.90
2018-07-16T23:30:01.023Z,4.57
2018-07-16T23:32:59.140Z,5.17
2018-07-16T23:35:56.374Z,4.73
2018-07-16T23:38:53.642Z,4.87
2018-07-16T23:41:51.289Z,5.17
2018-07-16T23:44:49.083Z,5.10
2018-07-16T23:47:46.314Z,4.83
2018-07-16T23:50:44.172Z,4.70
2018-07-16T23:53:41.763Z,4.90
2018-07-16T23:56:39.725Z,4.80
2018-07-16T23:59:37.507Z,5.17
